createdAt,value
2022-09-12T00:01:22.033Z,100.00
2022-09-12T00:03:53.013Z,100.00
2022-09-12T00:06:29.430Z,100.00
2022-09-12T00:09:00.186Z,100.00
2022-09-12T00:11:28.161Z,100.00
2022-09-12T00:14:01.245Z,100.00
2022-09-12T00:16:30.273Z,100.00
2022-09-12T00:18:57.393Z,100.00
2022-09-12T00:21:24.864Z,100.00
2022-09-12T00:23:52.210Z,100.00
2022-09-12T00:26:20.792Z,100.00
2022-09-12T00:28:49.371Z,100.00
2022-09-12T00:31:19.450Z,100.00
2022-09-12T00:33:47.333Z,100.00
2022-09-12T00:36:18.043Z,100.00
2022-09-12T00:38:46.224Z,100.00
2022-09-12T00:41:25.759Z,100.00
2022-09-12T00:44:02.376Z,100.00
2022-09-12T00:46:33.128Z,100.00
2022-09-12T00:49:27.113Z,100.00
2022-09-12T00:52:06.708Z,100.00
2022-09-12T00:54:43.380Z,100.00
2022-09-12T00:57:14.403Z,100.00
2022-09-12T00:59:50.715Z,100.00
2022-09-12T01:02:18.383Z,100.00
2022-09-12T01:04:48.103Z,100.00
2022-09-12T01:07:15.714Z,100.00
2022-09-12T01:09:45.564Z,100.00
2022-09-12T01:12:16.354Z,100.00
2022-09-12T01:14:43.966Z,100.00
2022-09-12T01:17:15.608Z,100.00
2022-09-12T01:19:57.634Z,100.00
2022-09-12T01:22:49.267Z,100.00
2022-09-12T01:25:48.595Z,100.00
2022-09-12T01:28:54.541Z,100.00
2022-09-12T01:31:47.736Z,100.00
2022-09-12T01:34:21.810Z,100.00
2022-09-12T01:37:10.943Z,100.00
2022-09-12T01:40:07.737Z,100.00
2022-09-12T01:43:03.726Z,100.00
2022-09-12T01:45:39.478Z,100.00
2022-09-12T01:48:13.784Z,100.00
2022-09-12T01:50:47.697Z,100.00
2022-09-12T01:53:22.408Z,100.00
2022-09-12T01:55:57.553Z,100.00
2022-09-12T01:58:34.862Z,100.00
2022-09-12T02:01:16.804Z,100.00
2022-09-12T02:04:31.052Z,100.00
2022-09-12T02:07:15.383Z,100.00
2022-09-12T02:10:15.464Z,100.00
2022-09-12T02:12:50.436Z,100.00
2022-09-12T02:15:21.158Z,100.00
2022-09-12T02:17:52.081Z,100.00
2022-09-12T02:20:46.880Z,100.00
2022-09-12T02:23:24.045Z,100.00
2022-09-12T02:25:55.227Z,100.00
2022-09-12T02:28:28.581Z,100.00
2022-09-12T02:31:20.071Z,100.00
2022-09-12T02:34:02.333Z,100.00
2022-09-12T02:36:52.173Z,100.00
2022-09-12T02:39:21.996Z,100.00
2022-09-12T02:41:54.034Z,100.00
2022-09-12T02:44:23.004Z,100.00
2022-09-12T02:47:16.037Z,100.00
2022-09-12T02:49:43.693Z,100.00
2022-09-12T02:52:10.743Z,100.00
2022-09-12T02:54:38.512Z,100.00
2022-09-12T02:57:22.628Z,100.00
2022-09-12T02:59:57.504Z,100.00
2022-09-12T03:03:03.915Z,100.00
2022-09-12T03:05:49.584Z,100.00
2022-09-12T03:08:33.134Z,100.00
2022-09-12T03:11:18.383Z,100.00
2022-09-12T03:14:08.884Z,100.00
2022-09-12T03:16:41.789Z,100.00
2022-09-12T03:19:15.080Z,100.00
2022-09-12T03:22:09.533Z,100.00
2022-09-12T03:24:47.491Z,100.00
2022-09-12T03:27:29.864Z,100.00
2022-09-12T03:29:58.090Z,100.00
2022-09-12T03:33:01.074Z,100.00
2022-09-12T03:35:28.203Z,100.00
2022-09-12T03:37:55.262Z,100.00
2022-09-12T03:40:22.392Z,100.00
2022-09-12T03:42:49.884Z,100.00
2022-09-12T03:45:21.596Z,100.00
2022-09-12T03:47:49.391Z,100.00
2022-09-12T03:50:16.507Z,100.00
2022-09-12T03:52:46.454Z,100.00
2022-09-12T03:55:13.528Z,100.00
2022-09-12T03:57:41.084Z,100.00
2022-09-12T04:00:08.955Z,100.00
2022-09-12T04:02:42.552Z,100.00
2022-09-12T04:05:09.666Z,100.00
2022-09-12T04:07:36.658Z,100.00
2022-09-12T04:10:04.141Z,100.00
2022-09-12T04:12:32.407Z,100.00
2022-09-12T04:14:59.646Z,100.00
2022-09-12T04:17:26.890Z,100.00
2022-09-12T04:19:54.110Z,100.00
2022-09-12T04:22:21.299Z,100.00
2022-09-12T04:24:48.404Z,100.00
2022-09-12T04:27:15.456Z,100.00
2022-09-12T04:29:42.915Z,100.00
2022-09-12T04:32:10.323Z,100.00
2022-09-12T04:34:37.576Z,100.00
2022-09-12T04:37:04.924Z,100.00
2022-09-12T04:39:32.119Z,100.00
2022-09-12T04:42:01.574Z,100.00
2022-09-12T04:44:29.134Z,100.00
2022-09-12T04:46:56.113Z,100.00
2022-09-12T04:49:23.550Z,100.00
2022-09-12T04:51:53.464Z,100.00
2022-09-12T04:54:21.151Z,100.00
2022-09-12T04:56:50.379Z,100.00
2022-09-12T04:59:21.768Z,100.00
2022-09-12T05:01:49.105Z,100.00
2022-09-12T05:04:16.349Z,100.00
2022-09-12T05:06:44.157Z,100.00
2022-09-12T05:09:12.828Z,100.00
2022-09-12T05:14:41.329Z,100.00
2022-09-12T05:17:08.755Z,100.00
2022-09-12T05:19:37.210Z,100.00
2022-09-12T05:22:07.711Z,100.00
2022-09-12T05:24:35.431Z,100.00
2022-09-12T05:27:04.942Z,100.00
2022-09-12T05:29:32.518Z,100.00
2022-09-12T05:31:59.733Z,100.00
2022-09-12T05:34:28.145Z,100.00
2022-09-12T05:36:55.391Z,100.00
2022-09-12T05:39:22.566Z,100.00
2022-09-12T05:41:49.959Z,100.00
2022-09-12T05:44:18.261Z,100.00
2022-09-12T05:46:48.809Z,100.00
2022-09-12T05:49:16.135Z,100.00
2022-09-12T05:51:46.060Z,100.00
2022-09-12T05:54:15.983Z,100.00
2022-09-12T05:56:44.302Z,100.00
2022-09-12T05:59:13.357Z,100.00
2022-09-12T06:01:41.071Z,100.00
2022-09-12T06:04:09.203Z,100.00
2022-09-12T06:06:45.354Z,100.00
2022-09-12T06:09:14.791Z,100.00
2022-09-12T06:11:42.697Z,100.00
2022-09-12T06:14:12.954Z,100.00
2022-09-12T06:16:40.808Z,100.00
2022-09-12T06:19:15.249Z,100.00
2022-09-12T06:21:42.375Z,100.00
2022-09-12T06:24:10.112Z,100.00
2022-09-12T06:26:37.700Z,100.00
2022-09-12T06:29:05.206Z,100.00
2022-09-12T06:31:35.266Z,100.00
2022-09-12T06:34:05.111Z,100.00
2022-09-12T06:36:35.154Z,100.00
2022-09-12T06:39:09.103Z,100.00
2022-09-12T06:41:38.456Z,100.00
2022-09-12T06:44:13.170Z,100.00
2022-09-12T06:46:40.223Z,100.00
2022-09-12T06:49:08.299Z,100.00
2022-09-12T06:51:38.590Z,100.00
2022-09-12T06:54:06.962Z,100.00
2022-09-12T06:56:34.469Z,100.00
2022-09-12T06:59:01.904Z,100.00
2022-09-12T07:01:33.363Z,100.00
2022-09-12T07:04:03.269Z,100.00
2022-09-12T07:06:35.192Z,100.00
2022-09-12T07:09:10.886Z,100.00
2022-09-12T07:11:40.074Z,100.00
2022-09-12T07:14:09.709Z,100.00
2022-09-12T07:16:37.545Z,100.00
2022-09-12T07:19:06.667Z,100.00
2022-09-12T07:21:36.695Z,100.00
2022-09-12T07:24:04.095Z,100.00
2022-09-12T07:26:31.514Z,100.00
2022-09-12T07:29:25.199Z,100.00
2022-09-12T07:31:47.308Z,100.00
2022-09-12T07:34:14.537Z,100.00
2022-09-12T07:36:41.719Z,100.00
2022-09-12T07:39:10.857Z,100.00
2022-09-12T07:41:38.288Z,100.00
2022-09-12T07:44:08.608Z,100.00
2022-09-12T07:46:35.886Z,100.00
2022-09-12T07:49:03.842Z,100.00
2022-09-12T07:51:31.730Z,100.00
2022-09-12T07:53:59.458Z,100.00
2022-09-12T07:56:31.161Z,100.00
2022-09-12T07:59:00.146Z,100.00
2022-09-12T08:01:30.351Z,100.00
2022-09-12T08:04:00.044Z,100.00
2022-09-12T08:06:30.584Z,100.00
2022-09-12T08:08:59.034Z,100.00
2022-09-12T08:11:31.083Z,100.00
2022-09-12T08:13:58.873Z,100.00
2022-09-12T08:16:28.559Z,100.00
2022-09-12T08:19:01.963Z,100.00
2022-09-12T08:21:32.467Z,100.00
2022-09-12T08:24:02.465Z,100.00
2022-09-12T08:26:32.035Z,100.00
2022-09-12T08:28:59.864Z,100.00
2022-09-12T08:31:28.272Z,100.00
2022-09-12T08:33:57.154Z,100.00
2022-09-12T08:36:27.013Z,100.00
2022-09-12T08:38:59.614Z,100.00
2022-09-12T08:41:44.678Z,100.00
2022-09-12T08:44:33.667Z,100.00
2022-09-12T08:47:11.041Z,100.00
2022-09-12T08:50:03.006Z,100.00
2022-09-12T08:52:33.969Z,100.00
2022-09-12T08:55:03.318Z,100.00
2022-09-12T08:57:30.596Z,100.00
2022-09-12T08:59:58.097Z,100.00
2022-09-12T09:02:40.837Z,100.00
2022-09-12T09:05:35.582Z,100.00
2022-09-12T09:08:11.672Z,100.00
2022-09-12T09:11:11.032Z,100.00
2022-09-12T09:14:05.221Z,100.00
2022-09-12T09:16:38.176Z,100.00
2022-09-12T09:19:17.596Z,100.00
2022-09-12T09:21:56.057Z,100.00
2022-09-12T09:24:33.871Z,100.00
2022-09-12T09:27:39.916Z,100.00
2022-09-12T09:30:16.900Z,100.00
2022-09-12T09:32:49.891Z,100.00
2022-09-12T09:35:38.192Z,100.00
2022-09-12T09:38:28.471Z,100.00
2022-09-12T09:41:22.067Z,100.00
2022-09-12T09:43:49.396Z,100.00
2022-09-12T09:46:19.133Z,100.00
2022-09-12T09:48:49.966Z,100.00
2022-09-12T09:51:22.032Z,100.00
2022-09-12T09:53:57.997Z,100.00
2022-09-12T09:56:33.420Z,100.00
2022-09-12T09:59:25.862Z,100.00
2022-09-12T10:02:23.794Z,100.00
2022-09-12T10:04:59.094Z,100.00
2022-09-12T10:07:27.351Z,100.00
2022-09-12T10:10:23.871Z,100.00
2022-09-12T10:12:51.768Z,100.00
2022-09-12T10:15:26.319Z,100.00
2022-09-12T10:17:55.804Z,100.00
2022-09-12T10:20:39.857Z,100.00
2022-09-12T10:23:19.837Z,100.00
2022-09-12T10:25:53.947Z,100.00
2022-09-12T10:28:46.237Z,100.00
2022-09-12T10:31:43.290Z,100.00
2022-09-12T10:34:23.101Z,100.00
2022-09-12T10:36:54.388Z,100.00
2022-09-12T10:39:22.702Z,100.00
2022-09-12T10:41:50.130Z,100.00
2022-09-12T10:44:31.625Z,100.00
2022-09-12T10:47:00.661Z,100.00
2022-09-12T10:49:31.422Z,100.00
2022-09-12T10:52:21.954Z,100.00
2022-09-12T10:54:54.776Z,100.00
2022-09-12T10:57:54.334Z,100.00
2022-09-12T11:00:27.989Z,100.00
2022-09-12T11:03:11.349Z,100.00
2022-09-12T11:05:47.604Z,100.00
2022-09-12T11:08:42.248Z,100.00
2022-09-12T11:11:28.250Z,100.00
2022-09-12T11:14:19.688Z,100.00
2022-09-12T11:16:54.666Z,100.00
2022-09-12T11:19:38.479Z,100.00
2022-09-12T11:22:33.953Z,100.00
2022-09-12T11:25:30.136Z,100.00
2022-09-12T11:28:11.084Z,100.00
2022-09-12T11:30:49.868Z,100.00
2022-09-12T11:33:25.477Z,100.00
2022-09-12T11:35:55.667Z,100.00
2022-09-12T11:38:31.107Z,100.00
2022-09-12T11:41:20.931Z,100.00
2022-09-12T11:43:48.240Z,100.00
2022-09-12T11:46:34.295Z,100.00
2022-09-12T11:49:41.830Z,100.00
2022-09-12T11:52:15.122Z,100.00
2022-09-12T11:54:53.662Z,100.00
2022-09-12T11:57:50.203Z,100.00
2022-09-12T12:00:38.445Z,100.00
2022-09-12T12:03:37.453Z,100.00
2022-09-12T12:06:22.210Z,100.00
2022-09-12T12:08:51.811Z,100.00
2022-09-12T12:11:33.822Z,100.00
2022-09-12T12:14:04.909Z,93.89
2022-09-12T12:16:35.229Z,100.00
2022-09-12T12:19:19.262Z,100.00
2022-09-12T12:21:53.045Z,100.00
2022-09-12T12:24:26.320Z,100.00
2022-09-12T12:26:53.396Z,100.00
2022-09-12T12:29:20.338Z,100.00
2022-09-12T12:31:59.769Z,95.31
2022-09-12T12:34:39.054Z,83.90
2022-09-12T12:37:21.567Z,79.19
2022-09-12T12:39:49.442Z,99.27
2022-09-12T12:42:37.400Z,100.00
2022-09-12T12:45:27.322Z,100.00
2022-09-12T12:47:58.417Z,100.00
2022-09-12T12:50:29.449Z,100.00
2022-09-12T12:53:15.383Z,100.00
2022-09-12T12:55:42.387Z,98.11
2022-09-12T12:58:33.109Z,95.41
2022-09-12T13:01:06.413Z,100.00
2022-09-12T13:03:34.716Z,100.00
2022-09-12T13:06:05.731Z,100.00
2022-09-12T13:08:43.905Z,100.00
2022-09-12T13:11:38.883Z,100.00
2022-09-12T13:14:27.484Z,100.00
2022-09-12T13:16:58.800Z,80.03
2022-09-12T13:19:32.701Z,95.76
2022-09-12T13:22:06.594Z,92.84
2022-09-12T13:24:42.303Z,100.00
2022-09-12T13:27:24.296Z,99.32
2022-09-12T13:30:14.164Z,71.85
2022-09-12T13:32:44.068Z,93.59
2022-09-12T13:35:35.069Z,100.00
2022-09-12T13:38:16.225Z,97.07
2022-09-12T13:41:03.805Z,91.70
2022-09-12T13:43:42.305Z,71.23
2022-09-12T13:46:13.781Z,79.94
2022-09-12T13:48:41.376Z,83.79
2022-09-12T13:51:23.393Z,89.71
2022-09-12T13:53:53.964Z,88.81
2022-09-12T13:56:21.454Z,79.09
2022-09-12T13:59:00.542Z,73.50
2022-09-12T14:01:42.482Z,87.50
2022-09-12T14:04:53.848Z,92.25
2022-09-12T14:07:25.643Z,92.81
2022-09-12T14:10:01.224Z,89.27
2022-09-12T14:12:44.176Z,68.26
2022-09-12T14:15:24.718Z,73.62
2022-09-12T14:17:54.992Z,80.28
2022-09-12T14:20:24.584Z,85.66
2022-09-12T14:22:53.045Z,87.08
2022-09-12T14:25:24.789Z,74.93
2022-09-12T14:27:55.374Z,72.06
2022-09-12T14:30:28.388Z,76.60
2022-09-12T14:33:10.711Z,79.26
2022-09-12T14:35:43.139Z,65.26
2022-09-12T14:38:16.659Z,65.31
2022-09-12T14:40:53.388Z,63.97
2022-09-12T14:43:24.928Z,64.47
2022-09-12T14:46:00.020Z,53.49
2022-09-12T14:48:31.341Z,59.73
2022-09-12T14:50:59.408Z,63.35
2022-09-12T14:53:34.021Z,66.21
2022-09-12T14:56:12.841Z,64.98
2022-09-12T14:58:41.817Z,66.55
2022-09-12T15:01:09.025Z,60.49
2022-09-12T15:03:46.001Z,57.36
2022-09-12T15:06:29.396Z,66.92
2022-09-12T15:08:59.821Z,65.29
2022-09-12T15:11:27.561Z,66.99
2022-09-12T15:13:55.274Z,51.52
2022-09-12T15:16:25.206Z,57.77
2022-09-12T15:18:52.600Z,62.55
2022-09-12T15:21:21.486Z,63.54
2022-09-12T15:23:50.621Z,64.06
2022-09-12T15:26:23.510Z,58.63
2022-09-12T15:28:51.190Z,54.20
2022-09-12T15:31:36.375Z,56.54
2022-09-12T15:34:03.878Z,57.73
2022-09-12T15:36:31.104Z,61.93
2022-09-12T15:38:58.586Z,59.29
2022-09-12T15:41:31.402Z,47.89
2022-09-12T15:43:58.608Z,52.89
2022-09-12T15:46:25.655Z,58.33
2022-09-12T15:48:52.819Z,59.12
2022-09-12T15:51:21.846Z,59.28
2022-09-12T15:53:50.598Z,50.99
2022-09-12T15:56:21.278Z,51.28
2022-09-12T15:58:58.899Z,57.36
2022-09-12T16:01:28.388Z,56.27
2022-09-12T16:03:55.723Z,55.99
2022-09-12T16:06:23.715Z,50.28
2022-09-12T16:08:50.994Z,47.99
2022-09-12T16:11:24.834Z,52.91
2022-09-12T16:13:56.919Z,57.95
2022-09-12T16:16:24.324Z,59.92
2022-09-12T16:18:51.787Z,56.40
2022-09-12T16:21:19.458Z,60.09
2022-09-12T16:23:48.128Z,52.92
2022-09-12T16:26:16.293Z,51.92
2022-09-12T16:28:43.822Z,56.48
2022-09-12T16:31:13.880Z,60.07
2022-09-12T16:33:41.202Z,61.16
2022-09-12T16:36:10.804Z,63.51
2022-09-12T16:38:52.979Z,53.08
2022-09-12T16:41:25.412Z,54.88
2022-09-12T16:43:53.256Z,59.95
2022-09-12T16:46:23.646Z,63.79
2022-09-12T16:48:54.251Z,62.80
2022-09-12T16:51:33.811Z,49.79
2022-09-12T16:54:01.103Z,54.01
2022-09-12T16:56:28.184Z,52.86
2022-09-12T16:58:55.800Z,55.38
2022-09-12T17:01:25.452Z,55.12
2022-09-12T17:03:57.903Z,49.92
2022-09-12T17:06:26.506Z,52.17
2022-09-12T17:08:55.487Z,54.63
2022-09-12T17:11:25.875Z,59.87
2022-09-12T17:14:10.412Z,64.47
2022-09-12T17:16:42.932Z,62.54
2022-09-12T17:19:19.715Z,58.11
2022-09-12T17:21:48.928Z,62.51
2022-09-12T17:24:22.217Z,52.71
2022-09-12T17:26:50.853Z,50.17
2022-09-12T17:29:18.377Z,56.35
2022-09-12T17:31:46.059Z,60.04
2022-09-12T17:34:16.494Z,63.14
2022-09-12T17:36:47.633Z,62.94
2022-09-12T17:39:15.552Z,65.92
2022-09-12T17:41:43.492Z,65.91
2022-09-12T17:44:15.315Z,65.38
2022-09-12T17:46:44.217Z,67.11
2022-09-12T17:49:17.406Z,63.57
2022-09-12T17:51:46.321Z,54.62
2022-09-12T17:54:18.323Z,62.00
2022-09-12T17:56:46.891Z,65.94
2022-09-12T17:59:17.678Z,68.27
2022-09-12T18:02:03.833Z,71.04
2022-09-12T18:04:31.225Z,73.37
2022-09-12T18:07:00.647Z,76.52
2022-09-12T18:09:28.532Z,75.63
2022-09-12T18:11:55.787Z,78.38
2022-09-12T18:14:23.841Z,66.79
2022-09-12T18:16:51.242Z,70.00
2022-09-12T18:19:18.695Z,79.32
2022-09-12T18:21:46.332Z,85.58
2022-09-12T18:24:14.048Z,89.55
2022-09-12T18:26:46.584Z,89.82
2022-09-12T18:29:17.145Z,92.34
2022-09-12T18:31:44.658Z,93.40
2022-09-12T18:34:15.357Z,90.15
2022-09-12T18:36:48.201Z,73.07
2022-09-12T18:39:16.327Z,85.15
2022-09-12T18:41:44.095Z,92.14
2022-09-12T18:44:12.190Z,75.22
2022-09-12T18:46:39.540Z,87.80
2022-09-12T18:49:07.936Z,93.88
2022-09-12T18:51:37.075Z,97.62
2022-09-12T18:54:06.833Z,100.00
2022-09-12T18:56:37.834Z,100.00
2022-09-12T18:59:06.596Z,100.00
2022-09-12T19:01:38.855Z,100.00
2022-09-12T19:04:07.982Z,100.00
2022-09-12T19:06:42.565Z,100.00
2022-09-12T19:09:14.582Z,100.00
2022-09-12T19:11:49.215Z,92.79
2022-09-12T19:14:18.605Z,88.21
2022-09-12T19:16:45.906Z,95.29
2022-09-12T19:19:13.223Z,97.87
2022-09-12T19:21:42.268Z,100.00
2022-09-12T19:24:10.798Z,100.00
2022-09-12T19:26:39.428Z,88.24
2022-09-12T19:29:07.562Z,90.52
2022-09-12T19:31:35.160Z,96.14
2022-09-12T19:34:06.619Z,100.00
2022-09-12T19:36:50.921Z,100.00
2022-09-12T19:39:19.987Z,100.00
2022-09-12T19:41:48.557Z,100.00
2022-09-12T19:44:16.023Z,100.00
2022-09-12T19:46:43.581Z,100.00
2022-09-12T19:49:12.563Z,100.00
2022-09-12T19:51:40.334Z,100.00
2022-09-12T19:54:08.043Z,100.00
2022-09-12T19:56:35.356Z,100.00
2022-09-12T19:59:02.554Z,95.62
2022-09-12T20:01:30.005Z,100.00
2022-09-12T20:03:58.794Z,100.00
2022-09-12T20:06:27.638Z,98.48
2022-09-12T20:08:55.772Z,100.00
2022-09-12T20:11:27.225Z,100.00
2022-09-12T20:13:54.648Z,100.00
2022-09-12T20:16:28.616Z,100.00
2022-09-12T20:18:58.877Z,100.00
2022-09-12T20:21:32.108Z,100.00
2022-09-12T20:24:14.674Z,100.00
2022-09-12T20:26:42.400Z,100.00
2022-09-12T20:29:10.699Z,100.00
2022-09-12T20:31:39.860Z,100.00
2022-09-12T20:34:08.002Z,100.00
2022-09-12T20:36:35.204Z,100.00
2022-09-12T20:39:02.925Z,100.00
2022-09-12T20:41:33.214Z,100.00
2022-09-12T20:44:00.586Z,100.00
2022-09-12T20:46:28.669Z,100.00
2022-09-12T20:48:56.385Z,100.00
2022-09-12T20:51:26.824Z,100.00
2022-09-12T20:53:55.444Z,100.00
2022-09-12T20:56:24.169Z,100.00
2022-09-12T20:58:51.859Z,100.00
2022-09-12T21:01:20.198Z,100.00
2022-09-12T21:03:48.414Z,100.00
2022-09-12T21:06:19.994Z,100.00
2022-09-12T21:08:48.919Z,100.00
2022-09-12T21:11:18.034Z,100.00
2022-09-12T21:13:47.189Z,100.00
2022-09-12T21:16:17.942Z,100.00
2022-09-12T21:18:45.344Z,100.00
2022-09-12T21:21:15.246Z,100.00
2022-09-12T21:23:42.602Z,100.00
2022-09-12T21:26:10.407Z,100.00
2022-09-12T21:28:40.474Z,100.00
2022-09-12T21:31:07.797Z,100.00
2022-09-12T21:33:35.473Z,100.00
2022-09-12T21:36:04.981Z,100.00
2022-09-12T21:38:33.043Z,100.00
2022-09-12T21:41:08.910Z,100.00
2022-09-12T21:43:36.904Z,100.00
2022-09-12T21:46:05.521Z,100.00
2022-09-12T21:48:35.281Z,100.00
2022-09-12T21:51:02.900Z,100.00
2022-09-12T21:53:30.353Z,100.00
2022-09-12T21:56:02.247Z,100.00
2022-09-12T21:58:29.302Z,100.00
2022-09-12T22:00:56.424Z,100.00
2022-09-12T22:03:26.684Z,100.00
2022-09-12T22:05:58.659Z,100.00
2022-09-12T22:08:26.281Z,100.00
2022-09-12T22:10:53.685Z,100.00
2022-09-12T22:13:20.936Z,100.00
2022-09-12T22:15:53.207Z,100.00
2022-09-12T22:18:20.476Z,100.00
2022-09-12T22:20:48.104Z,100.00
2022-09-12T22:23:34.098Z,100.00
2022-09-12T22:26:02.991Z,100.00
2022-09-12T22:28:32.291Z,100.00
2022-09-12T22:30:59.888Z,100.00
2022-09-12T22:33:27.659Z,100.00
2022-09-12T22:35:54.899Z,100.00
2022-09-12T22:38:22.623Z,100.00
2022-09-12T22:40:50.176Z,100.00
2022-09-12T22:43:19.217Z,100.00
2022-09-12T22:45:46.535Z,100.00
2022-09-12T22:48:13.814Z,100.00
2022-09-12T22:50:41.796Z,100.00
2022-09-12T22:53:09.366Z,100.00
2022-09-12T22:55:36.547Z,100.00
2022-09-12T22:58:04.146Z,100.00
2022-09-12T23:00:31.408Z,100.00
2022-09-12T23:02:58.540Z,100.00
2022-09-12T23:05:26.206Z,100.00
2022-09-12T23:07:53.270Z,100.00
2022-09-12T23:10:20.435Z,100.00
2022-09-12T23:12:47.502Z,100.00
2022-09-12T23:15:15.486Z,100.00
2022-09-12T23:17:42.505Z,100.00
2022-09-12T23:20:10.156Z,100.00
2022-09-12T23:22:37.562Z,100.00
2022-09-12T23:25:05.591Z,100.00
2022-09-12T23:27:32.599Z,100.00
2022-09-12T23:29:59.767Z,100.00
2022-09-12T23:32:27.003Z,100.00
2022-09-12T23:34:54.380Z,100.00
2022-09-12T23:37:21.866Z,100.00
2022-09-12T23:39:49.878Z,100.00
2022-09-12T23:42:17.388Z,100.00
2022-09-12T23:44:47.124Z,100.00
2022-09-12T23:47:14.200Z,100.00
2022-09-12T23:49:41.579Z,100.00
2022-09-12T23:52:08.702Z,100.00
2022-09-12T23:54:37.333Z,100.00
2022-09-12T23:57:04.480Z,100.00
2022-09-12T23:59:31.673Z,100.00
